Time;durP1;ratioP1;P1;durP2;ratioP2;P2;SDS_P1;SDS_P2;PMS_P1;PMS_P2;Temp;Humidity;BMP_temperature;BMP_pressure;BME280_temperature;BME280_humidity;BME280_pressure;Samples;Min_cycle;Max_cycle;Signal;HPM_P1;HPM_P2
2023/09/23 00:01:38;;;;;;;48.00;46.00;;;;;;;12.45;100.00;100403.25;4934834;29;20487;-42
2023/09/23 00:04:06;;;;;;;45.97;44.20;;;;;;;12.40;100.00;100396.88;4934887;29;20440;-43
2023/09/23 00:06:35;;;;;;;48.37;46.10;;;;;;;12.37;100.00;100416.03;4934204;29;20457;-43
2023/09/23 00:09:06;;;;;;;48.83;46.57;;;;;;;12.35;100.00;100415.44;4935020;29;20444;-40
2023/09/23 00:11:35;;;;;;;51.83;49.53;;;;;;;12.31;100.00;100417.72;4934758;29;21156;-43
2023/09/23 00:14:05;;;;;;;49.00;46.90;;;;;;;12.29;100.00;100416.28;4934814;29;20437;-41
2023/09/23 00:16:33;;;;;;;50.00;47.80;;;;;;;12.26;100.00;100416.72;4934253;29;20555;-43
2023/09/23 00:19:02;;;;;;;49.03;47.00;;;;;;;12.24;100.00;100421.47;4934826;29;20441;-41
2023/09/23 00:21:29;;;;;;;48.90;46.30;;;;;;;12.22;100.00;100421.69;4934021;29;20515;-42
2023/09/23 00:23:57;;;;;;;48.90;47.00;;;;;;;12.21;100.00;100414.72;4934300;29;20476;-46
2023/09/23 00:26:26;;;;;;;54.27;51.50;;;;;;;12.21;100.00;100420.06;4933618;29;20461;-39
2023/09/23 00:28:54;;;;;;;50.37;48.17;;;;;;;12.21;100.00;100425.41;4934566;29;20437;-39
2023/09/23 00:31:24;;;;;;;54.53;51.93;;;;;;;12.23;100.00;100420.66;4934144;29;20440;-40
2023/09/23 00:33:52;;;;;;;51.93;49.47;;;;;;;12.26;100.00;100416.72;4942013;29;20437;-41
2023/09/23 00:36:22;;;;;;;51.37;48.93;;;;;;;12.27;100.00;100421.03;4934322;29;20461;-44
2023/09/23 00:38:49;;;;;;;53.20;50.87;;;;;;;12.28;100.00;100415.47;4934329;29;20799;-43
2023/09/23 00:41:18;;;;;;;52.97;50.57;;;;;;;12.30;100.00;100415.28;4933644;29;20512;-39
2023/09/23 00:43:48;;;;;;;52.67;50.53;;;;;;;12.29;100.00;100409.09;4934239;29;20436;-41
2023/09/23 00:46:21;;;;;;;53.93;51.87;;;;;;;12.29;100.00;100411.78;4933693;29;20464;-41
2023/09/23 00:48:51;;;;;;;53.50;51.30;;;;;;;12.31;100.00;100403.53;4934710;29;20520;-41
2023/09/23 00:51:21;;;;;;;53.60;51.20;;;;;;;12.32;100.00;100410.50;4933858;29;20794;-41
2023/09/23 00:53:50;;;;;;;51.63;49.53;;;;;;;12.31;100.00;100415.03;4934314;29;20488;-39
2023/09/23 00:56:23;;;;;;;54.20;51.47;;;;;;;12.33;100.00;100413.00;4933722;28;21538;-40
2023/09/23 00:58:52;;;;;;;54.03;51.67;;;;;;;12.35;100.00;100424.28;4926310;29;20464;-42
2023/09/23 01:01:21;;;;;;;53.73;51.50;;;;;;;12.35;100.00;100426.94;4933898;29;20453;-46
2023/09/23 01:03:49;;;;;;;55.73;53.33;;;;;;;12.37;100.00;100429.41;4934236;29;20484;-46
2023/09/23 01:06:19;;;;;;;55.80;53.50;;;;;;;12.39;100.00;100438.03;4933743;28;20906;-44
2023/09/23 01:08:47;;;;;;;57.00;54.50;;;;;;;12.39;100.00;100446.88;4933553;29;20929;-45
2023/09/23 01:11:17;;;;;;;57.50;54.60;;;;;;;12.41;100.00;100442.13;4933598;29;20809;-41
2023/09/23 01:13:50;;;;;;;55.77;53.03;;;;;;;12.46;100.00;100436.13;4934124;29;20437;-42
2023/09/23 01:16:21;;;;;;;52.90;50.50;;;;;;;12.51;100.00;100444.34;4933335;29;20465;-40
2023/09/23 01:18:50;;;;;;;58.17;55.07;;;;;;;12.56;100.00;100444.50;4933617;29;20441;-43
2023/09/23 01:21:18;;;;;;;58.60;55.90;;;;;;;12.58;100.00;100440.56;4933157;29;20849;-43
2023/09/23 01:23:48;;;;;;;58.10;55.50;;;;;;;12.62;100.00;100436.44;4933596;29;20484;-40
2023/09/23 01:26:16;;;;;;;58.67;56.03;;;;;;;12.67;100.00;100430.41;4933405;29;20476;-46
2023/09/23 01:28:45;;;;;;;55.70;53.00;;;;;;;12.70;100.00;100428.13;4933890;29;20447;-42
2023/09/23 01:31:13;;;;;;;54.60;51.90;;;;;;;12.75;100.00;100433.66;4933043;29;20451;-43
2023/09/23 01:33:41;;;;;;;58.10;55.20;;;;;;;12.81;100.00;100439.19;4933638;29;20452;-42
2023/09/23 01:36:11;;;;;;;56.20;53.50;;;;;;;12.85;100.00;100446.53;4933087;28;21009;-42
2023/09/23 01:38:41;;;;;;;58.83;55.63;;;;;;;12.87;100.00;100449.84;4933686;29;20464;-46
2023/09/23 01:41:10;;;;;;;58.87;55.90;;;;;;;12.91;100.00;100459.03;4933372;29;20528;-44
2023/09/23 01:43:38;;;;;;;57.40;55.00;;;;;;;12.94;100.00;100447.91;4933289;29;21028;-45
2023/09/23 01:46:06;;;;;;;58.20;55.50;;;;;;;12.97;100.00;100449.31;4932606;29;20460;-44
2023/09/23 01:48:34;;;;;;;56.33;53.83;;;;;;;12.99;100.00;100448.06;4933535;29;20484;-39
2023/09/23 01:51:04;;;;;;;58.77;55.97;;;;;;;13.01;100.00;100459.38;4933140;29;21006;-42
2023/09/23 01:53:32;;;;;;;59.73;57.07;;;;;;;13.04;100.00;100452.78;4933094;29;20464;-44
2023/09/23 01:55:59;;;;;;;57.43;54.63;;;;;;;13.05;100.00;100449.84;4936930;29;20904;-44
2023/09/23 01:58:29;;;;;;;59.17;56.57;;;;;;;13.06;100.00;100450.69;4937514;29;20452;-44
2023/09/23 02:00:58;;;;;;;61.93;59.13;;;;;;;13.08;100.00;100449.44;4931483;29;20449;-38
2023/09/23 02:03:26;;;;;;;60.07;57.53;;;;;;;13.09;100.00;100455.63;4943337;29;21003;-40
2023/09/23 02:05:55;;;;;;;61.63;58.73;;;;;;;13.08;100.00;100454.81;4942651;29;20476;-37
2023/09/23 02:08:23;;;;;;;58.33;55.30;;;;;;;13.08;100.00;100464.72;4942758;29;20443;-39
2023/09/23 02:10:52;;;;;;;61.10;57.87;;;;;;;13.08;100.00;100467.41;4942557;29;20496;-39
2023/09/23 02:13:21;;;;;;;61.20;58.17;;;;;;;13.08;100.00;100467.41;4943085;29;20459;-38
2023/09/23 02:15:52;;;;;;;60.37;57.63;;;;;;;13.07;100.00;100463.03;4941233;29;20503;-45
2023/09/23 02:18:21;;;;;;;62.47;59.47;;;;;;;13.07;100.00;100460.38;4942815;29;20504;-38
2023/09/23 02:20:49;;;;;;;59.03;56.13;;;;;;;13.08;100.00;100470.06;4941996;29;20449;-39
2023/09/23 02:23:17;;;;;;;60.20;57.20;;;;;;;13.11;100.00;100464.28;4941310;29;20488;-39
2023/09/23 02:25:47;;;;;;;59.83;57.03;;;;;;;13.12;100.00;100468.56;4941656;29;20992;-38
2023/09/23 02:28:15;;;;;;;58.17;55.27;;;;;;;13.11;100.00;100461.59;4941743;29;20468;-40
2023/09/23 02:30:43;;;;;;;57.23;54.53;;;;;;;13.13;100.00;100472.91;4942681;29;20443;-38
2023/09/23 02:33:12;;;;;;;55.83;53.33;;;;;;;13.14;100.00;100471.88;4942017;29;20449;-43
2023/09/23 02:35:40;;;;;;;57.37;54.60;;;;;;;13.16;100.00;100475.16;4940605;29;20464;-37
2023/09/23 02:38:10;;;;;;;58.03;55.33;;;;;;;13.15;100.00;100474.31;4941207;29;20966;-38
2023/09/23 02:40:41;;;;;;;58.67;55.40;;;;;;;13.17;100.00;100474.91;4940762;29;20441;-39
2023/09/23 02:43:08;;;;;;;56.23;53.63;;;;;;;13.17;100.00;100480.25;4941037;29;20476;-37
2023/09/23 02:45:36;;;;;;;56.13;53.40;;;;;;;13.18;100.00;100486.44;4936426;29;20479;-41
2023/09/23 02:48:04;;;;;;;54.73;52.00;;;;;;;13.18;100.00;100484.59;4944378;29;20445;-43
2023/09/23 02:50:36;;;;;;;53.10;50.50;;;;;;;13.19;100.00;100486.25;4944691;29;20441;-42
2023/09/23 02:53:04;;;;;;;53.80;51.17;;;;;;;13.18;100.00;100483.75;4942150;29;20476;-38
2023/09/23 02:55:32;;;;;;;56.07;53.17;;;;;;;13.17;100.00;100490.97;4940776;29;20499;-41
2023/09/23 02:58:00;;;;;;;56.33;53.43;;;;;;;13.19;100.00;100496.13;4941695;29;20465;-40
2023/09/23 03:00:30;;;;;;;59.40;55.80;;;;;;;13.19;100.00;100504.97;4941330;29;20839;-37
2023/09/23 03:03:01;;;;;;;60.60;57.60;;;;;;;13.18;100.00;100503.34;4941686;29;20484;-39
2023/09/23 03:05:30;;;;;;;59.97;56.97;;;;;;;13.18;100.00;100507.88;4942927;28;20461;-39
2023/09/23 03:08:01;;;;;;;61.33;58.33;;;;;;;13.20;100.00;100511.16;4933331;29;20944;-42
2023/09/23 03:10:34;;;;;;;59.07;55.90;;;;;;;13.18;100.00;100513.22;4933598;29;20455;-43
2023/09/23 03:13:05;;;;;;;61.83;58.73;;;;;;;13.17;100.00;100516.97;4941512;29;20463;-38
2023/09/23 03:15:41;;;;;;;59.00;55.80;;;;;;;13.18;100.00;100527.44;4924422;29;21059;-38
2023/09/23 03:18:09;;;;;;;58.03;55.23;;;;;;;13.18;100.00;100534.63;4930353;29;20429;-38
2023/09/23 03:20:39;;;;;;;59.93;56.73;;;;;;;13.19;100.00;100530.94;4929715;29;20440;-44
2023/09/23 03:23:10;;;;;;;61.17;58.10;;;;;;;13.19;100.00;100525.56;4922031;29;20548;-38
2023/09/23 03:25:48;;;;;;;58.43;55.63;;;;;;;13.19;100.00;100523.72;4921895;29;20528;-44
2023/09/23 03:28:16;;;;;;;51.37;48.90;;;;;;;13.18;100.00;100529.28;4935738;29;20432;-41
2023/09/23 03:30:47;;;;;;;53.67;51.07;;;;;;;13.16;100.00;100523.34;4940784;29;20861;-38
2023/09/23 03:33:18;;;;;;;46.10;43.90;;;;;;;13.14;100.00;100528.09;4941377;29;20456;-40
2023/09/23 03:35:46;;;;;;;39.47;37.77;;;;;;;13.13;100.00;100531.81;4940892;29;20456;-42
2023/09/23 03:38:15;;;;;;;36.40;34.90;;;;;;;13.11;100.00;100523.97;4941076;29;20445;-41
2023/09/23 03:40:50;;;;;;;35.40;34.00;;;;;;;13.11;100.00;100533.91;4939148;29;20460;-37
2023/09/23 03:43:18;;;;;;;34.03;32.63;;;;;;;13.12;100.00;100530.97;4939632;29;20490;-41
2023/09/23 03:45:47;;;;;;;33.80;32.60;;;;;;;13.12;100.00;100552.41;4939004;29;20568;-40
2023/09/23 03:48:15;;;;;;;34.73;33.27;;;;;;;13.13;100.00;100545.19;4939391;29;20505;-38
2023/09/23 03:50:43;;;;;;;35.20;33.80;;;;;;;13.11;100.00;100540.03;4938680;29;20469;-38
2023/09/23 03:53:11;;;;;;;34.07;32.77;;;;;;;13.13;100.00;100547.88;4939090;29;20452;-41
2023/09/23 03:55:41;;;;;;;37.20;35.70;;;;;;;13.13;100.00;100553.22;4939598;29;20527;-37
2023/09/23 03:58:09;;;;;;;35.40;34.10;;;;;;;13.13;100.00;100547.88;4940009;29;20496;-39
2023/09/23 04:00:37;;;;;;;39.27;37.77;;;;;;;13.13;100.00;100543.34;4939417;29;20496;-39
2023/09/23 04:03:05;;;;;;;37.53;36.03;;;;;;;13.14;100.00;100544.97;4939006;29;20519;-39
2023/09/23 04:05:34;;;;;;;37.13;35.63;;;;;;;13.15;100.00;100538.56;4933513;29;20469;-40
2023/09/23 04:08:01;;;;;;;38.93;37.33;;;;;;;13.15;100.00;100543.94;4931956;29;20437;-39
2023/09/23 04:10:29;;;;;;;39.63;38.13;;;;;;;13.17;100.00;100549.09;4938701;29;20437;-37
2023/09/23 04:12:58;;;;;;;42.47;40.87;;;;;;;13.17;100.00;100546.41;4939622;29;20460;-39
2023/09/23 04:15:26;;;;;;;41.33;39.77;;;;;;;13.15;100.00;100551.97;4939976;29;20460;-40
2023/09/23 04:17:53;;;;;;;44.43;42.53;;;;;;;13.15;100.00;100559.16;4939163;29;20517;-37
2023/09/23 04:20:21;;;;;;;43.10;41.40;;;;;;;13.13;100.00;100561.25;4940881;29;20837;-38
2023/09/23 04:22:49;;;;;;;45.80;44.00;;;;;;;13.12;100.00;100563.09;4941752;29;20460;-40
2023/09/23 04:25:20;;;;;;;47.43;45.60;;;;;;;13.13;100.00;100563.94;4940201;29;20492;-40
2023/09/23 04:27:49;;;;;;;50.47;48.30;;;;;;;13.10;100.00;100559.00;4940353;29;20500;-40
2023/09/23 04:30:18;;;;;;;47.90;45.70;;;;;;;13.08;100.00;100561.09;4940451;29;20468;-38
2023/09/23 04:32:45;;;;;;;51.10;49.10;;;;;;;13.07;100.00;100570.94;4940405;29;20485;-38
2023/09/23 04:35:14;;;;;;;51.50;49.20;;;;;;;13.07;100.00;100570.13;4940447;29;20452;-38
2023/09/23 04:37:42;;;;;;;53.73;51.53;;;;;;;13.06;100.00;100574.66;4940355;29;20445;-38
2023/09/23 04:40:11;;;;;;;56.53;54.13;;;;;;;13.05;100.00;100580.25;4940456;29;20508;-40
2023/09/23 04:42:40;;;;;;;55.90;53.47;;;;;;;13.05;100.00;100577.56;4941544;29;20460;-38
2023/09/23 04:45:09;;;;;;;58.27;55.83;;;;;;;13.04;100.00;100576.72;4939181;28;20476;-38
2023/09/23 04:47:39;;;;;;;60.63;57.90;;;;;;;13.05;100.00;100585.59;4939404;29;20987;-39
2023/09/23 04:50:11;;;;;;;60.33;57.73;;;;;;;13.05;100.00;100580.25;4937841;29;20447;-40
2023/09/23 04:52:40;;;;;;;61.53;58.93;;;;;;;13.06;100.00;100579.19;4939489;29;20931;-38
2023/09/23 04:55:09;;;;;;;57.37;54.70;;;;;;;13.05;100.00;100585.59;4939089;29;20769;-38
2023/09/23 04:57:36;;;;;;;57.53;55.03;;;;;;;13.04;100.00;100591.97;4939067;29;20492;-38
2023/09/23 05:00:09;;;;;;;58.73;56.07;;;;;;;13.05;100.00;100596.31;4939178;29;20444;-39
2023/09/23 05:02:41;;;;;;;63.53;60.80;;;;;;;13.05;100.00;100596.31;4939617;29;20524;-37
2023/09/23 05:05:11;;;;;;;63.83;61.00;;;;;;;13.05;100.00;100601.66;4939529;29;20563;-38
2023/09/23 05:07:40;;;;;;;63.30;60.40;;;;;;;13.04;100.00;100600.81;4939981;29;20460;-42
2023/09/23 05:10:08;;;;;;;63.70;61.10;;;;;;;13.05;100.00;100598.97;4939597;29;20516;-40
2023/09/23 05:12:36;;;;;;;61.03;58.47;;;;;;;13.06;100.00;100604.09;4939369;29;20460;-40
2023/09/23 05:15:05;;;;;;;59.23;56.83;;;;;;;13.10;100.00;100608.03;4939390;29;20475;-43
2023/09/23 05:17:32;;;;;;;67.40;64.57;;;;;;;13.10;100.00;100607.19;4939826;29;20473;-40
2023/09/23 05:20:09;;;;;;;62.57;60.17;;;;;;;13.11;100.00;100612.31;4933524;29;20500;-42
2023/09/23 05:22:38;;;;;;;64.27;61.53;;;;;;;13.14;100.00;100624.50;4945487;29;20518;-38
2023/09/23 05:25:07;;;;;;;69.80;66.80;;;;;;;13.15;100.00;100621.56;4932448;29;20844;-37
2023/09/23 05:27:35;;;;;;;67.53;64.53;;;;;;;13.17;100.00;100634.75;4938585;29;20528;-42
2023/09/23 05:30:07;;;;;;;68.50;65.27;;;;;;;13.19;100.00;100638.88;4939437;29;20448;-41
2023/09/23 05:32:35;;;;;;;67.10;64.00;;;;;;;13.20;100.00;100640.50;4938905;29;20498;-38
2023/09/23 05:35:09;;;;;;;70.00;66.90;;;;;;;13.23;100.00;100642.72;4937943;29;20435;-39
2023/09/23 05:37:36;;;;;;;69.60;66.60;;;;;;;13.24;100.00;100641.69;4938285;29;20468;-41
2023/09/23 05:40:23;;;;;;;72.00;68.67;;;;;;;13.28;100.00;100642.94;4942253;29;20504;-38
2023/09/23 05:42:52;;;;;;;74.23;70.87;;;;;;;13.30;100.00;100643.53;4939502;29;21019;-38
2023/09/23 05:45:23;;;;;;;78.77;75.07;;;;;;;13.30;100.00;100650.72;4938885;29;20489;-43
2023/09/23 05:47:51;;;;;;;76.80;73.30;;;;;;;13.32;100.00;100649.47;4946094;29;20471;-41
2023/09/23 05:50:21;;;;;;;72.67;69.23;;;;;;;13.37;100.00;100653.38;4937782;29;20449;-41
2023/09/23 05:52:49;;;;;;;77.57;74.17;;;;;;;13.40;100.00;100650.25;4939757;29;20467;-39
2023/09/23 05:55:17;;;;;;;76.20;72.57;;;;;;;13.47;100.00;100656.41;4937174;29;20478;-41
2023/09/23 05:57:44;;;;;;;78.30;74.30;;;;;;;13.50;100.00;100659.44;4939124;29;20619;-41
2023/09/23 06:00:15;;;;;;;76.20;72.60;;;;;;;13.56;100.00;100658.56;4945927;29;20547;-39
2023/09/23 06:02:44;;;;;;;77.97;74.20;;;;;;;13.62;100.00;100655.00;4938949;29;20468;-40
2023/09/23 06:05:13;;;;;;;81.67;77.70;;;;;;;13.64;100.00;100662.84;4941598;29;20457;-38
2023/09/23 06:07:43;;;;;;;71.40;67.73;;;;;;;13.65;100.00;100657.25;4937901;29;20433;-40
2023/09/23 06:10:11;;;;;;;72.63;68.93;;;;;;;13.73;100.00;100662.38;4940733;29;20527;-39
2023/09/23 06:12:39;;;;;;;72.23;68.67;;;;;;;13.79;100.00;100666.03;4946972;28;20950;-41
2023/09/23 06:15:10;;;;;;;79.33;75.30;;;;;;;13.82;100.00;100666.41;4934750;28;20919;-38
2023/09/23 06:17:38;;;;;;;76.23;72.10;;;;;;;13.90;100.00;100673.34;4938032;29;20429;-43
2023/09/23 06:20:07;;;;;;;69.10;65.67;;;;;;;13.99;100.00;100669.34;4938857;29;20432;-42
2023/09/23 06:22:35;;;;;;;68.20;64.60;;;;;;;14.08;100.00;100673.38;4942057;29;20492;-39
2023/09/23 06:25:05;;;;;;;66.57;63.07;;;;;;;14.19;100.00;100682.56;4937793;28;20480;-39
2023/09/23 06:27:33;;;;;;;63.40;60.00;;;;;;;14.31;100.00;100680.78;4937652;29;21045;-43
2023/09/23 06:30:02;;;;;;;59.27;55.90;;;;;;;14.43;100.00;100679.03;4938497;29;20437;-38
2023/09/23 06:32:30;;;;;;;59.27;56.17;;;;;;;14.63;100.00;100686.88;4938506;29;20857;-40
2023/09/23 06:34:58;;;;;;;54.70;51.80;;;;;;;14.80;100.00;100680.69;4937557;29;20441;-39
2023/09/23 06:37:26;;;;;;;52.97;50.13;;;;;;;14.98;100.00;100677.13;4937849;29;20568;-39
2023/09/23 06:39:53;;;;;;;51.10;48.40;;;;;;;15.18;100.00;100683.06;4942382;29;20463;-40
2023/09/23 06:42:22;;;;;;;50.63;47.83;;;;;;;15.38;100.00;100682.78;4941655;29;21015;-41
2023/09/23 06:44:50;;;;;;;49.13;46.60;;;;;;;15.59;100.00;100686.84;4940615;29;20488;-38
2023/09/23 06:47:18;;;;;;;47.93;45.43;;;;;;;15.76;100.00;100685.13;4951917;29;20859;-44
2023/09/23 06:49:46;;;;;;;47.03;44.40;;;;;;;15.91;100.00;100690.88;4947321;29;20500;-38
2023/09/23 06:52:13;;;;;;;46.90;44.40;;;;;;;16.03;100.00;100689.00;4956270;28;20462;-38
2023/09/23 06:54:41;;;;;;;45.87;43.47;;;;;;;16.30;100.00;100689.34;4952855;29;20439;-43
2023/09/23 06:57:09;;;;;;;45.60;43.20;;;;;;;16.54;100.00;100699.91;4926402;29;20466;-39
2023/09/23 06:59:38;;;;;;;43.30;41.20;;;;;;;16.79;100.00;100696.06;4932632;29;20471;-38
2023/09/23 07:02:06;;;;;;;40.37;38.37;;;;;;;16.90;100.00;100701.47;4931289;29;20551;-39
2023/09/23 07:04:36;;;;;;;40.67;38.50;;;;;;;16.78;100.00;100700.66;4932696;29;20437;-39
2023/09/23 07:07:03;;;;;;;39.00;37.20;;;;;;;16.77;100.00;100700.91;4930519;29;20916;-38
2023/09/23 07:09:31;;;;;;;40.73;38.83;;;;;;;16.76;100.00;100707.31;4930905;29;20523;-40
2023/09/23 07:11:59;;;;;;;42.07;40.03;;;;;;;16.66;100.00;100704.44;4938681;29;20480;-41
2023/09/23 07:14:27;;;;;;;40.17;38.20;;;;;;;16.43;100.00;100713.31;4934780;29;20433;-40
2023/09/23 07:16:56;;;;;;;42.03;40.13;;;;;;;16.36;100.00;100721.53;4940213;29;21105;-41
2023/09/23 07:19:25;;;;;;;40.50;38.60;;;;;;;16.28;100.00;100721.03;4943373;29;20436;-38
2023/09/23 07:21:52;;;;;;;42.27;40.37;;;;;;;16.06;100.00;100728.91;4943023;29;20460;-38
2023/09/23 07:24:20;;;;;;;43.03;41.13;;;;;;;15.96;100.00;100724.09;4940662;29;20820;-40
2023/09/23 07:26:48;;;;;;;39.80;38.00;;;;;;;15.88;100.00;100737.88;4941147;29;20476;-39
2023/09/23 07:29:15;;;;;;;39.67;38.03;;;;;;;15.67;100.00;100741.09;4935807;29;20444;-46
2023/09/23 07:31:43;;;;;;;36.50;34.70;;;;;;;15.56;100.00;100741.84;4935327;29;20482;-43
2023/09/23 07:34:13;;;;;;;35.07;33.67;;;;;;;15.47;100.00;100741.38;4942833;29;20433;-41
2023/09/23 07:36:42;;;;;;;37.13;35.63;;;;;;;15.44;100.00;100738.31;4934395;29;20468;-42
2023/09/23 07:39:10;;;;;;;36.10;34.63;;;;;;;15.42;100.00;100751.13;4934721;29;20436;-44
2023/09/23 07:41:38;;;;;;;35.20;33.80;;;;;;;15.47;100.00;100748.63;4935707;29;20464;-43
2023/09/23 07:44:06;;;;;;;32.60;31.40;;;;;;;15.55;100.00;100747.47;4938412;29;20531;-42
2023/09/23 07:46:34;;;;;;;31.23;30.13;;;;;;;15.70;100.00;100755.94;4934667;29;20785;-42
2023/09/23 07:49:02;;;;;;;29.90;28.73;;;;;;;15.86;100.00;100750.72;4934688;29;20437;-46
2023/09/23 07:51:35;;;;;;;30.50;29.20;;;;;;;15.96;100.00;100755.53;4934696;29;20444;-42
2023/09/23 07:54:03;;;;;;;30.67;29.50;;;;;;;16.01;100.00;100767.22;4934726;29;20436;-43
2023/09/23 07:56:31;;;;;;;31.13;29.93;;;;;;;16.04;100.00;100758.69;4937241;28;20543;-42
2023/09/23 07:58:58;;;;;;;31.70;30.50;;;;;;;15.99;100.00;100761.28;4946822;29;20450;-42
2023/09/23 08:01:26;;;;;;;31.87;30.67;;;;;;;15.91;100.00;100768.88;4937131;29;21016;-41
2023/09/23 08:03:54;;;;;;;35.60;34.20;;;;;;;15.80;100.00;100775.84;4938305;29;20452;-43
2023/09/23 08:06:21;;;;;;;38.50;36.90;;;;;;;15.66;100.00;100793.22;4941115;28;20567;-38
2023/09/23 08:08:50;;;;;;;39.03;37.43;;;;;;;15.47;100.00;100797.81;4940501;29;20444;-40
2023/09/23 08:11:18;;;;;;;40.47;38.00;;;;;;;15.35;100.00;100806.84;4940755;29;20443;-41
2023/09/23 08:13:46;;;;;;;38.00;36.50;;;;;;;15.10;100.00;100806.09;4942152;29;20941;-41
2023/09/23 08:16:14;;;;;;;38.40;37.00;;;;;;;15.08;100.00;100817.09;4931895;29;20469;-39
2023/09/23 08:18:42;;;;;;;38.43;36.70;;;;;;;14.98;100.00;100821.31;4940600;29;20456;-40
2023/09/23 08:21:11;;;;;;;37.10;35.60;;;;;;;14.90;100.00;100822.47;4940001;29;20845;-42
2023/09/23 08:23:39;;;;;;;38.03;36.53;;;;;;;14.85;100.00;100824.97;4940185;29;20462;-37
2023/09/23 08:26:08;;;;;;;37.43;35.93;;;;;;;14.82;100.00;100830.78;4931778;29;20470;-37
2023/09/23 08:28:36;;;;;;;40.17;38.60;;;;;;;14.80;100.00;100831.00;4930431;29;20448;-41
2023/09/23 08:31:04;;;;;;;38.30;36.83;;;;;;;14.83;100.00;100829.75;4938533;29;20487;-40
2023/09/23 08:33:32;;;;;;;36.27;35.07;;;;;;;14.87;100.00;100839.81;4935450;29;20495;-39
2023/09/23 08:36:00;;;;;;;38.60;37.07;;;;;;;14.98;100.00;100842.81;4930010;29;21044;-38
2023/09/23 08:38:27;;;;;;;40.33;38.87;;;;;;;15.29;100.00;100853.44;4929449;29;20437;-38
2023/09/23 08:40:55;;;;;;;38.70;37.30;;;;;;;15.48;100.00;100860.44;4937226;29;20443;-38
2023/09/23 08:43:36;;;;;;;38.30;36.80;;;;;;;15.60;100.00;100865.88;4934432;29;20920;-40
2023/09/23 08:46:05;;;;;;;36.13;34.73;;;;;;;15.60;100.00;100860.50;4937748;29;20480;-38
2023/09/23 08:48:35;;;;;;;35.87;34.67;;;;;;;15.83;100.00;100858.72;4949572;29;20866;-41
2023/09/23 08:51:04;;;;;;;38.20;36.80;;;;;;;16.21;100.00;100852.19;4939739;29;20468;-40
2023/09/23 08:53:34;;;;;;;36.93;35.60;;;;;;;16.42;100.00;100862.44;4939219;29;20457;-38
2023/09/23 08:56:02;;;;;;;34.37;33.17;;;;;;;16.65;100.00;100858.97;4937798;29;20515;-38
2023/09/23 08:58:31;;;;;;;36.10;34.80;;;;;;;16.65;100.00;100856.25;4938914;29;20437;-39
2023/09/23 09:00:59;;;;;;;35.00;33.80;;;;;;;16.64;100.00;100860.00;4938460;29;20492;-40
2023/09/23 09:03:27;;;;;;;35.30;34.10;;;;;;;16.70;100.00;100864.44;4938785;29;20488;-43
2023/09/23 09:05:54;;;;;;;35.87;34.47;;;;;;;16.82;100.00;100859.88;4945352;29;20541;-38
2023/09/23 09:08:22;;;;;;;36.17;34.90;;;;;;;16.98;100.00;100868.09;4938399;29;20448;-42
2023/09/23 09:10:50;;;;;;;34.10;32.70;;;;;;;17.14;100.00;100878.16;4939892;29;20432;-41
2023/09/23 09:13:18;;;;;;;34.40;33.10;;;;;;;17.31;100.00;100882.81;4931403;29;20464;-38
2023/09/23 09:15:47;;;;;;;31.17;30.07;;;;;;;17.43;100.00;100880.91;4939288;29;20840;-39
2023/09/23 09:18:16;;;;;;;28.60;27.53;;;;;;;17.48;100.00;100883.72;4939755;29;20429;-41
2023/09/23 09:20:45;;;;;;;29.50;28.23;;;;;;;17.54;100.00;100880.06;4939692;29;20444;-38
2023/09/23 09:23:13;;;;;;;43.70;41.33;;;;;;;17.63;100.00;100887.56;4939678;29;20448;-39
2023/09/23 09:25:47;;;;;;;29.97;28.67;;;;;;;17.74;100.00;100888.59;4940034;29;20515;-38
2023/09/23 09:28:16;;;;;;;29.07;27.77;;;;;;;17.77;100.00;100890.81;4939685;29;21007;-40
2023/09/23 09:30:45;;;;;;;29.13;28.13;;;;;;;17.86;100.00;100899.38;4939542;29;20436;-39
2023/09/23 09:33:16;;;;;;;27.50;26.43;;;;;;;17.86;100.00;100904.75;4939026;29;20480;-43
2023/09/23 09:35:46;;;;;;;26.80;25.90;;;;;;;17.81;100.00;100905.47;4939534;29;20474;-38
2023/09/23 09:38:16;;;;;;;26.03;25.13;;;;;;;17.66;100.00;100903.28;4939435;29;20467;-39
2023/09/23 09:40:46;;;;;;;27.00;25.90;;;;;;;18.01;100.00;100900.44;4939456;29;20463;-39
2023/09/23 09:43:16;;;;;;;28.03;27.03;;;;;;;18.32;100.00;100909.09;4939503;29;20547;-38
2023/09/23 09:45:44;;;;;;;28.50;27.37;;;;;;;18.47;100.00;100901.28;4938547;29;20464;-39
2023/09/23 09:48:15;;;;;;;28.70;27.70;;;;;;;18.75;100.00;100906.66;4939062;29;21078;-38
2023/09/23 09:50:45;;;;;;;27.97;26.83;;;;;;;18.92;100.00;100909.31;4939720;29;20441;-41
2023/09/23 09:53:13;;;;;;;26.30;25.50;;;;;;;18.83;100.00;100914.31;4940304;29;20612;-41
2023/09/23 09:55:41;;;;;;;25.23;24.33;;;;;;;18.63;100.00;100914.00;4938665;29;20471;-38
2023/09/23 09:58:09;;;;;;;24.17;23.20;;;;;;;18.59;100.00;100912.84;4938831;29;20989;-41
2023/09/23 10:00:42;;;;;;;24.57;23.50;;;;;;;18.89;100.00;100934.13;4938584;29;20591;-38
2023/09/23 10:03:12;;;;;;;23.90;23.10;;;;;;;19.28;100.00;100928.53;4939238;29;20456;-41
2023/09/23 10:05:47;;;;;;;23.70;22.90;;;;;;;19.31;100.00;100921.78;4938836;29;20464;-43
2023/09/23 10:08:19;;;;;;;24.50;23.60;;;;;;;19.41;100.00;100930.09;4939065;29;20511;-41
2023/09/23 10:10:49;;;;;;;23.73;22.63;;;;;;;19.25;100.00;100937.13;4939434;29;20447;-38
2023/09/23 10:13:19;;;;;;;24.40;23.10;;;;;;;19.17;100.00;100934.03;4939887;29;20452;-39
2023/09/23 10:15:47;;;;;;;21.67;20.53;;;;;;;19.13;100.00;100930.19;4941137;29;20467;-38
2023/09/23 10:18:17;;;;;;;22.03;21.13;;;;;;;19.27;100.00;100932.28;4943788;29;20440;-40
2023/09/23 10:20:52;;;;;;;23.83;22.93;;;;;;;19.57;100.00;100937.31;4943388;29;20496;-42
2023/09/23 10:23:21;;;;;;;21.53;20.73;;;;;;;19.46;100.00;100938.25;4943019;29;20451;-41
2023/09/23 10:25:50;;;;;;;20.97;20.17;;;;;;;19.27;100.00;100937.69;4942249;28;21047;-42
2023/09/23 10:28:21;;;;;;;20.70;20.00;;;;;;;19.37;100.00;100947.84;4943038;29;21177;-39
2023/09/23 10:30:59;;;;;;;20.77;20.07;;;;;;;19.18;100.00;100947.28;4942694;29;20870;-39
2023/09/23 10:33:29;;;;;;;20.60;19.60;;;;;;;19.05;100.00;100944.94;4935995;29;20455;-40
2023/09/23 10:35:58;;;;;;;20.63;19.93;;;;;;;18.92;100.00;100953.38;4941870;29;20865;-38
2023/09/23 10:38:27;;;;;;;19.80;19.10;;;;;;;18.73;100.00;100958.19;4943368;29;20460;-37
2023/09/23 10:40:56;;;;;;;21.10;20.30;;;;;;;18.68;100.00;100965.41;4942117;29;20436;-40
2023/09/23 10:43:24;;;;;;;19.80;19.03;;;;;;;18.66;100.00;100965.66;4943014;29;21030;-40
2023/09/23 10:45:53;;;;;;;19.37;18.57;;;;;;;18.62;100.00;100975.31;4942582;29;20460;-42
2023/09/23 10:48:21;;;;;;;21.10;20.30;;;;;;;18.89;100.00;100983.59;4934936;29;20472;-43
2023/09/23 10:50:51;;;;;;;20.93;20.20;;;;;;;18.98;100.00;100976.72;4943261;29;20533;-40
2023/09/23 10:53:21;;;;;;;18.33;17.73;;;;;;;19.10;100.00;100980.16;4942871;29;20884;-40
2023/09/23 10:55:50;;;;;;;18.80;18.00;;;;;;;19.03;100.00;100979.50;4942161;29;20837;-38
2023/09/23 10:58:19;;;;;;;18.73;18.13;;;;;;;18.96;100.00;100984.28;4942855;29;20428;-44
2023/09/23 11:00:48;;;;;;;17.97;17.13;;;;;;;18.91;100.00;100988.75;4942550;29;20444;-40
2023/09/23 11:03:17;;;;;;;16.60;16.20;;;;;;;18.56;100.00;100994.38;4942154;29;20979;-39
2023/09/23 11:05:46;;;;;;;17.93;17.20;;;;;;;18.46;100.00;100986.03;4942112;29;20468;-42
2023/09/23 11:08:15;;;;;;;18.63;17.77;;;;;;;18.47;100.00;100990.38;4942016;29;20909;-39
2023/09/23 11:10:46;;;;;;;18.83;17.83;;;;;;;18.57;100.00;100996.00;4942422;29;20440;-39